createdAt,value
2022-09-28T00:02:00.989Z,98798.81
2022-09-28T00:04:28.653Z,98797.63
2022-09-28T00:06:55.094Z,98781.41
2022-09-28T00:09:21.691Z,98798.97
2022-09-28T00:11:48.222Z,98777.41
2022-09-28T00:14:15.274Z,98793.00
2022-09-28T00:16:44.983Z,98783.03
2022-09-28T00:19:13.008Z,98786.53
2022-09-28T00:21:40.683Z,98766.66
2022-09-28T00:24:17.244Z,98769.78
2022-09-28T00:26:51.214Z,98778.75
2022-09-28T00:29:29.399Z,98785.03
2022-09-28T00:32:02.517Z,98781.91
2022-09-28T00:34:34.655Z,98771.47
2022-09-28T00:37:02.419Z,98769.44
2022-09-28T00:39:31.598Z,98768.47
2022-09-28T00:41:58.712Z,98756.84
2022-09-28T00:44:25.423Z,98763.66
2022-09-28T00:47:10.170Z,98745.75
2022-09-28T00:49:54.829Z,98744.25
2022-09-28T00:52:26.922Z,98737.97
2022-09-28T00:54:53.654Z,98740.63
2022-09-28T00:57:21.308Z,98720.25
2022-09-28T00:59:49.450Z,98759.03
2022-09-28T01:02:16.061Z,98765.97
2022-09-28T01:04:42.635Z,98749.59
2022-09-28T01:07:09.894Z,98749.16
2022-09-28T01:09:40.647Z,98763.03
2022-09-28T01:12:07.924Z,98753.59
2022-09-28T01:14:34.582Z,98755.75
2022-09-28T01:17:13.517Z,98757.41
2022-09-28T01:20:15.512Z,98759.53
2022-09-28T01:22:41.908Z,98770.13
2022-09-28T01:25:28.193Z,98766.97
2022-09-28T01:27:58.682Z,98749.19
2022-09-28T01:30:25.330Z,98760.47
2022-09-28T01:33:01.903Z,98763.66
2022-09-28T01:35:33.482Z,98728.44
2022-09-28T01:38:03.658Z,98762.06
2022-09-28T01:40:31.370Z,98765.56
2022-09-28T01:43:03.296Z,98714.81
2022-09-28T01:45:34.061Z,98761.34
2022-09-28T01:48:03.761Z,98746.03
2022-09-28T01:50:35.506Z,98742.69
2022-09-28T01:53:30.048Z,98761.31
2022-09-28T01:56:00.557Z,98750.09
2022-09-28T01:58:32.618Z,98760.50
2022-09-28T02:01:09.684Z,98764.41
2022-09-28T02:03:42.314Z,98754.28
2022-09-28T02:06:14.628Z,98744.38
2022-09-28T02:08:50.384Z,98758.50
2022-09-28T02:11:20.571Z,98760.53
2022-09-28T02:13:54.188Z,98753.06
2022-09-28T02:16:35.976Z,98759.25
2022-09-28T02:19:03.795Z,98762.66
2022-09-28T02:21:58.551Z,98749.81
2022-09-28T02:24:35.750Z,98752.34
2022-09-28T02:27:16.301Z,98712.72
2022-09-28T02:29:42.990Z,98738.47
2022-09-28T02:32:10.396Z,98752.22
2022-09-28T02:34:36.942Z,98753.56
2022-09-28T02:37:03.810Z,98757.03
2022-09-28T02:39:30.363Z,98728.69
2022-09-28T02:42:28.003Z,98752.34
2022-09-28T02:45:20.882Z,98733.66
2022-09-28T02:48:01.398Z,98750.38
2022-09-28T02:50:36.887Z,98751.50
2022-09-28T02:53:24.785Z,98754.47
2022-09-28T02:56:00.488Z,98732.50
2022-09-28T02:58:55.007Z,98752.19
2022-09-28T03:01:29.574Z,98753.41
2022-09-28T03:04:40.858Z,98745.59
2022-09-28T03:07:16.657Z,98741.97
2022-09-28T03:09:52.489Z,98762.03
2022-09-28T03:12:20.856Z,98745.91
2022-09-28T03:14:47.346Z,98753.06
2022-09-28T03:17:16.643Z,98763.84
2022-09-28T03:19:43.157Z,98761.50
2022-09-28T03:22:09.591Z,98760.50
2022-09-28T03:24:36.292Z,98756.53
2022-09-28T03:27:02.808Z,98751.59
2022-09-28T03:29:32.932Z,98733.94
2022-09-28T03:31:59.598Z,98764.13
2022-09-28T03:34:26.177Z,98760.28
2022-09-28T03:36:52.654Z,98759.09
2022-09-28T03:39:19.153Z,98751.06
2022-09-28T03:41:45.706Z,98770.25
2022-09-28T03:44:12.179Z,98765.78
2022-09-28T03:46:38.722Z,98764.63
2022-09-28T03:49:05.335Z,98755.53
2022-09-28T03:51:32.331Z,98744.84
2022-09-28T03:53:58.936Z,98757.63
2022-09-28T03:56:26.130Z,98719.25
2022-09-28T03:58:52.628Z,98755.66
2022-09-28T04:01:19.127Z,98756.22
2022-09-28T04:03:46.398Z,98752.69
2022-09-28T04:06:13.807Z,98757.34
2022-09-28T04:08:40.322Z,98731.66
2022-09-28T04:11:06.809Z,98756.06
2022-09-28T04:13:33.293Z,98753.41
2022-09-28T04:16:01.174Z,98754.22
2022-09-28T04:18:28.551Z,98718.25
2022-09-28T04:21:15.489Z,98750.91
2022-09-28T04:23:42.412Z,98754.22
2022-09-28T04:26:16.614Z,98755.22
2022-09-28T04:29:06.360Z,98747.41
2022-09-28T04:31:47.826Z,98739.16
2022-09-28T04:34:17.328Z,98757.53
2022-09-28T04:36:45.169Z,98765.16
2022-09-28T04:39:12.707Z,98765.13
2022-09-28T04:41:39.870Z,98774.41
2022-09-28T04:44:06.596Z,98716.38
2022-09-28T04:46:33.175Z,98769.63
2022-09-28T04:48:59.697Z,98750.56
2022-09-28T04:51:26.158Z,98773.19
2022-09-28T04:53:52.698Z,98773.78
2022-09-28T04:56:20.261Z,98766.63
2022-09-28T04:58:51.804Z,98723.41
2022-09-28T05:01:23.325Z,98753.88
2022-09-28T05:03:51.146Z,98770.75
2022-09-28T05:06:17.937Z,98778.09
2022-09-28T05:08:46.794Z,98759.19
2022-09-28T05:11:13.837Z,98779.75
2022-09-28T05:13:43.459Z,98776.59
2022-09-28T05:16:10.352Z,98777.28
2022-09-28T05:18:36.955Z,98783.72
2022-09-28T05:21:04.539Z,98778.09
2022-09-28T05:23:34.315Z,98758.13
2022-09-28T05:26:02.228Z,98743.78
2022-09-28T05:28:29.957Z,98784.66
2022-09-28T05:31:02.710Z,98756.00
2022-09-28T05:33:29.350Z,98781.75
2022-09-28T05:36:00.299Z,98786.34
2022-09-28T05:38:27.795Z,98749.56
2022-09-28T05:40:54.504Z,98784.72
2022-09-28T05:43:21.028Z,98782.50
2022-09-28T05:45:52.912Z,98738.00
2022-09-28T05:48:21.685Z,98776.44
2022-09-28T05:50:52.450Z,98766.66
2022-09-28T05:53:20.099Z,98775.75
2022-09-28T05:55:46.609Z,98787.81
2022-09-28T05:58:13.374Z,98782.94
2022-09-28T06:00:40.262Z,98778.03
2022-09-28T06:03:12.428Z,98743.28
2022-09-28T06:05:39.675Z,98785.53
2022-09-28T06:08:08.248Z,98782.88
2022-09-28T06:10:35.030Z,98787.53
2022-09-28T06:13:02.235Z,98789.38
2022-09-28T06:15:31.680Z,98789.16
2022-09-28T06:18:03.906Z,98789.72
2022-09-28T06:20:33.335Z,98784.88
2022-09-28T06:22:59.821Z,98797.66
2022-09-28T06:25:27.653Z,98794.00
2022-09-28T06:27:58.830Z,98772.13
2022-09-28T06:30:27.295Z,98786.19
2022-09-28T06:32:58.965Z,98798.97
2022-09-28T06:35:27.047Z,98818.56
2022-09-28T06:37:53.997Z,98796.16
2022-09-28T06:40:21.675Z,98806.94
2022-09-28T06:43:10.295Z,98823.84
2022-09-28T06:45:37.652Z,98813.69
2022-09-28T06:48:04.753Z,98827.94
2022-09-28T06:50:37.491Z,98770.97
2022-09-28T06:53:06.700Z,98816.88
2022-09-28T06:55:33.272Z,98827.72
2022-09-28T06:58:04.354Z,98751.50
2022-09-28T07:00:33.942Z,98829.00
2022-09-28T07:03:02.578Z,98825.00
2022-09-28T07:05:29.949Z,98829.59
2022-09-28T07:07:56.963Z,98832.53
2022-09-28T07:10:27.731Z,98834.94
2022-09-28T07:12:55.342Z,98841.88
2022-09-28T07:15:22.618Z,98839.31
2022-09-28T07:18:00.371Z,98843.09
2022-09-28T07:20:30.225Z,98809.44
2022-09-28T07:23:08.086Z,98857.25
2022-09-28T07:25:45.504Z,98840.47
2022-09-28T07:28:12.310Z,98803.91
2022-09-28T07:30:38.858Z,98850.34
2022-09-28T07:33:07.303Z,98856.22
2022-09-28T07:35:34.384Z,98862.00
2022-09-28T07:38:03.678Z,98856.88
2022-09-28T07:40:49.947Z,98864.63
2022-09-28T07:43:20.615Z,98872.19
2022-09-28T07:45:55.703Z,98873.22
2022-09-28T07:48:22.595Z,98839.53
2022-09-28T07:50:52.465Z,98871.00
2022-09-28T07:53:20.186Z,98869.19
2022-09-28T07:56:05.623Z,98874.66
2022-09-28T07:58:32.934Z,98857.84
2022-09-28T08:01:06.810Z,98862.03
2022-09-28T08:03:35.054Z,98865.97
2022-09-28T08:06:04.078Z,98889.03
2022-09-28T08:08:31.553Z,98897.66
2022-09-28T08:10:58.355Z,98886.72
2022-09-28T08:13:27.160Z,98855.94
2022-09-28T08:15:54.479Z,98893.03
2022-09-28T08:18:21.397Z,98902.78
2022-09-28T08:21:06.570Z,98905.16
2022-09-28T08:23:33.038Z,98897.59
2022-09-28T08:25:59.531Z,98896.44
2022-09-28T08:28:26.219Z,98863.56
2022-09-28T08:30:54.215Z,98888.63
2022-09-28T08:33:21.688Z,98904.78
2022-09-28T08:35:54.477Z,98905.72
2022-09-28T08:38:21.330Z,98905.34
2022-09-28T08:40:57.502Z,98886.78
2022-09-28T08:43:34.287Z,98907.78
2022-09-28T08:46:01.207Z,98891.63
2022-09-28T08:48:56.338Z,98898.31
2022-09-28T08:51:44.384Z,98915.44
2022-09-28T08:54:36.045Z,98929.56
2022-09-28T08:57:19.600Z,98926.00
2022-09-28T08:59:53.285Z,98929.41
2022-09-28T09:02:27.643Z,98920.91
2022-09-28T09:04:54.731Z,98915.53
2022-09-28T09:07:42.571Z,98931.81
2022-09-28T09:10:17.417Z,98916.28
2022-09-28T09:12:58.661Z,98937.97
2022-09-28T09:15:47.689Z,98942.69
2022-09-28T09:18:20.071Z,98950.22
2022-09-28T09:20:59.686Z,98948.09
2022-09-28T09:23:38.330Z,98947.38
2022-09-28T09:26:22.140Z,98925.78
2022-09-28T09:29:17.599Z,98951.00
2022-09-28T09:32:04.253Z,98956.91
2022-09-28T09:34:38.019Z,98960.41
2022-09-28T09:37:10.573Z,98966.13
2022-09-28T09:40:01.300Z,98971.22
2022-09-28T09:42:49.940Z,98965.56
2022-09-28T09:45:47.946Z,98975.72
2022-09-28T09:48:20.838Z,98981.31
2022-09-28T09:50:57.356Z,98979.03
2022-09-28T09:53:28.902Z,98979.06
2022-09-28T09:56:06.048Z,98943.16
2022-09-28T09:58:41.097Z,98970.81
2022-09-28T10:01:10.920Z,98943.28
2022-09-28T10:03:41.678Z,98974.06
2022-09-28T10:06:27.396Z,98984.19
2022-09-28T10:09:19.191Z,98972.72
2022-09-28T10:11:50.169Z,98978.00
2022-09-28T10:14:19.968Z,98974.06
2022-09-28T10:16:48.453Z,98980.19
2022-09-28T10:19:16.764Z,98981.81
2022-09-28T10:21:43.602Z,98983.31
2022-09-28T10:24:16.902Z,98981.91
2022-09-28T10:26:47.249Z,98982.88
2022-09-28T10:29:17.717Z,98976.88
2022-09-28T10:31:47.216Z,98990.06
2022-09-28T10:34:15.522Z,98933.06
2022-09-28T10:36:50.157Z,99000.91
2022-09-28T10:39:50.555Z,98993.41
2022-09-28T10:42:36.175Z,98974.06
2022-09-28T10:45:05.250Z,99000.88
2022-09-28T10:47:32.746Z,98960.75
2022-09-28T10:49:59.883Z,98956.84
2022-09-28T10:52:33.901Z,99002.53
2022-09-28T10:55:00.843Z,98989.56
2022-09-28T10:57:35.989Z,98976.88
2022-09-28T11:00:06.486Z,99005.56
2022-09-28T11:02:37.700Z,98998.81
2022-09-28T11:05:06.233Z,98977.03
2022-09-28T11:07:34.098Z,99011.75
2022-09-28T11:10:01.345Z,98989.28
2022-09-28T11:12:35.250Z,99010.19
2022-09-28T11:15:06.482Z,99013.72
2022-09-28T11:17:33.828Z,99015.72
2022-09-28T11:20:02.621Z,99012.47
2022-09-28T11:22:36.351Z,99023.81
2022-09-28T11:25:32.062Z,99021.97
2022-09-28T11:27:59.999Z,99028.56
2022-09-28T11:30:40.625Z,99016.91
2022-09-28T11:33:12.037Z,99023.31
2022-09-28T11:36:12.692Z,99021.81
2022-09-28T11:39:11.617Z,99022.84
2022-09-28T11:42:16.194Z,99018.97
2022-09-28T11:44:46.427Z,99021.97
2022-09-28T11:47:29.636Z,99020.31
2022-09-28T11:50:25.366Z,99019.09
2022-09-28T11:52:58.202Z,99029.25
2022-09-28T11:55:31.422Z,99026.53
2022-09-28T11:58:11.806Z,99020.22
2022-09-28T12:00:44.187Z,98989.34
2022-09-28T12:03:41.230Z,99024.34
2022-09-28T12:06:15.560Z,99007.63
2022-09-28T12:08:48.730Z,99025.91
2022-09-28T12:11:21.407Z,99034.38
2022-09-28T12:13:49.927Z,99016.75
2022-09-28T12:16:53.683Z,99033.28
2022-09-28T12:19:27.482Z,98992.78
2022-09-28T12:21:56.870Z,98988.88
2022-09-28T12:24:29.449Z,99017.41
2022-09-28T12:27:11.374Z,99005.19
2022-09-28T12:29:49.732Z,99012.06
2022-09-28T12:32:28.453Z,99017.22
2022-09-28T12:34:55.898Z,98975.28
2022-09-28T12:37:41.281Z,99002.19
2022-09-28T12:40:07.931Z,99010.88
2022-09-28T12:43:06.999Z,99004.94
2022-09-28T12:45:59.772Z,99011.50
2022-09-28T12:48:53.096Z,99010.44
2022-09-28T12:51:36.902Z,99000.72
2022-09-28T12:54:18.750Z,99005.06
2022-09-28T12:56:52.217Z,99000.31
2022-09-28T12:59:29.186Z,98924.59
2022-09-28T13:02:31.144Z,99005.44
2022-09-28T13:05:33.922Z,99003.84
2022-09-28T13:08:09.666Z,99006.63
2022-09-28T13:10:52.215Z,99008.38
2022-09-28T13:13:21.790Z,99009.81
2022-09-28T13:16:09.533Z,99010.63
2022-09-28T13:18:57.298Z,99005.28
2022-09-28T13:21:41.689Z,99003.84
2022-09-28T13:24:31.184Z,99005.03
2022-09-28T13:27:04.545Z,98988.03
2022-09-28T13:29:32.032Z,99002.03
2022-09-28T13:31:59.354Z,99005.41
2022-09-28T13:34:28.941Z,98988.53
2022-09-28T13:37:11.203Z,98992.84
2022-09-28T13:39:56.613Z,98993.47
2022-09-28T13:42:35.299Z,98996.16
2022-09-28T13:45:19.980Z,99003.34
2022-09-28T13:47:52.493Z,99003.09
2022-09-28T13:50:43.188Z,99000.94
2022-09-28T13:53:22.899Z,99003.16
2022-09-28T13:56:23.530Z,99002.06
2022-09-28T13:59:03.610Z,99003.06
2022-09-28T14:01:35.711Z,98981.19
2022-09-28T14:04:11.662Z,99011.91
2022-09-28T14:06:47.479Z,98996.78
2022-09-28T14:09:16.037Z,99007.13
2022-09-28T14:12:00.275Z,99002.94
2022-09-28T14:15:02.607Z,99000.53
2022-09-28T14:17:31.747Z,99009.38
2022-09-28T14:20:11.083Z,99001.53
2022-09-28T14:23:00.735Z,99008.09
2022-09-28T14:25:31.307Z,99004.06
2022-09-28T14:28:19.089Z,99008.91
2022-09-28T14:30:54.030Z,99010.94
2022-09-28T14:33:20.621Z,99012.22
2022-09-28T14:36:08.080Z,99013.41
2022-09-28T14:38:54.262Z,99009.66
2022-09-28T14:41:34.579Z,99024.22
2022-09-28T14:44:02.787Z,99018.53
2022-09-28T14:46:30.937Z,98989.13
2022-09-28T14:49:23.192Z,99016.63
2022-09-28T14:51:58.402Z,99017.00
2022-09-28T14:54:26.920Z,99016.25
2022-09-28T14:56:53.617Z,99022.41
2022-09-28T14:59:20.134Z,99022.69
2022-09-28T15:02:03.711Z,99021.00
2022-09-28T15:04:30.875Z,99022.34
2022-09-28T15:06:58.081Z,98974.75
2022-09-28T15:09:35.108Z,99024.59
2022-09-28T15:12:13.080Z,99018.50
2022-09-28T15:15:02.388Z,99013.41
2022-09-28T15:17:39.559Z,99014.56
2022-09-28T15:20:36.998Z,99028.19
2022-09-28T15:23:03.950Z,99018.69
2022-09-28T15:25:33.910Z,99023.50
2022-09-28T15:28:03.509Z,99036.00
2022-09-28T15:30:32.029Z,99025.75
2022-09-28T15:33:19.306Z,99026.88
2022-09-28T15:35:54.812Z,99025.06
2022-09-28T15:38:21.662Z,99011.47
2022-09-28T15:40:48.352Z,99025.44
2022-09-28T15:43:32.672Z,99031.25
2022-09-28T15:46:13.869Z,99015.16
2022-09-28T15:48:41.168Z,99040.03
2022-09-28T15:51:12.554Z,99016.91
2022-09-28T15:53:52.893Z,99044.59
2022-09-28T15:56:19.526Z,99019.94
2022-09-28T15:59:14.840Z,99042.31
2022-09-28T16:01:45.187Z,99045.59
2022-09-28T16:04:37.568Z,99045.16
2022-09-28T16:07:10.174Z,99038.56
2022-09-28T16:09:56.656Z,99039.28
2022-09-28T16:12:24.685Z,99047.59
2022-09-28T16:14:52.073Z,99011.16
2022-09-28T16:17:32.693Z,99052.53
2022-09-28T16:20:05.497Z,99056.94
2022-09-28T16:22:32.782Z,99035.13
2022-09-28T16:25:00.834Z,99050.13
2022-09-28T16:27:45.742Z,99058.13
2022-09-28T16:30:20.973Z,99051.41
2022-09-28T16:32:56.553Z,99062.00
2022-09-28T16:35:25.760Z,99061.53
2022-09-28T16:38:05.524Z,99061.19
2022-09-28T16:40:32.840Z,99045.63
2022-09-28T16:43:03.359Z,99076.69
2022-09-28T16:45:29.946Z,99052.91
2022-09-28T16:47:57.437Z,99084.91
2022-09-28T16:50:25.014Z,99056.94
2022-09-28T16:53:34.672Z,99087.91
2022-09-28T16:56:02.415Z,99085.41
2022-09-28T16:58:31.141Z,99082.91
2022-09-28T17:00:58.749Z,99076.41
2022-09-28T17:03:26.085Z,99069.91
2022-09-28T17:05:52.885Z,99057.22
2022-09-28T17:08:22.191Z,99090.88
2022-09-28T17:13:41.163Z,99089.81
2022-09-28T17:16:20.985Z,99098.31
2022-09-28T17:18:51.781Z,99106.03
2022-09-28T17:21:19.908Z,99093.28
2022-09-28T17:23:48.074Z,99111.63
2022-09-28T17:26:19.965Z,99063.63
2022-09-28T17:28:46.485Z,99057.34
2022-09-28T17:31:16.905Z,99112.44
2022-09-28T17:33:43.678Z,99106.03
2022-09-28T17:36:14.355Z,99086.19
2022-09-28T17:38:42.832Z,99123.97
2022-09-28T17:41:19.369Z,99115.63
2022-09-28T17:43:46.914Z,99089.38
2022-09-28T17:46:31.671Z,99115.47
2022-09-28T17:48:59.866Z,99125.06
2022-09-28T17:51:31.348Z,99006.44
2022-09-28T17:53:58.814Z,99085.09
2022-09-28T17:56:28.579Z,99130.72
2022-09-28T17:59:00.227Z,99100.03
2022-09-28T18:01:29.960Z,99134.16
2022-09-28T18:03:56.495Z,99097.31
2022-09-28T18:06:23.688Z,99109.16
2022-09-28T18:08:50.221Z,99132.75
2022-09-28T18:11:17.367Z,99142.50
2022-09-28T18:13:45.905Z,99116.53
2022-09-28T18:16:13.107Z,99144.56
2022-09-28T18:18:39.910Z,99143.59
2022-09-28T18:21:07.372Z,99120.47
2022-09-28T18:23:39.882Z,99143.69
2022-09-28T18:26:13.876Z,99152.22
2022-09-28T18:28:40.782Z,99157.13
2022-09-28T18:31:12.131Z,99138.75
2022-09-28T18:33:51.280Z,99151.06
2022-09-28T18:36:17.698Z,99160.63
2022-09-28T18:38:46.927Z,99127.47
2022-09-28T18:41:15.539Z,99158.72
2022-09-28T18:43:49.196Z,99163.41
2022-09-28T18:46:17.603Z,99144.56
2022-09-28T18:48:44.323Z,99160.81
2022-09-28T18:51:11.916Z,99164.00
2022-09-28T18:53:38.897Z,99157.16
2022-09-28T18:56:09.859Z,99169.19
2022-09-28T18:58:37.553Z,99113.81
2022-09-28T19:01:33.536Z,99117.31
2022-09-28T19:04:01.650Z,99097.00
2022-09-28T19:06:28.558Z,99176.97
2022-09-28T19:08:55.818Z,99146.75
2022-09-28T19:11:23.068Z,99171.50
2022-09-28T19:13:49.667Z,99172.88
2022-09-28T19:16:18.354Z,99171.88
2022-09-28T19:18:45.037Z,99173.31
2022-09-28T19:21:13.655Z,99123.16
2022-09-28T19:23:44.707Z,99119.84
2022-09-28T19:26:15.720Z,99171.19
2022-09-28T19:28:42.379Z,99174.84
2022-09-28T19:31:09.215Z,99130.06
2022-09-28T19:33:36.635Z,99179.81
2022-09-28T19:36:11.464Z,99175.31
2022-09-28T19:38:39.146Z,99175.50
2022-09-28T19:41:10.523Z,99123.28
2022-09-28T19:43:37.347Z,99162.53
2022-09-28T19:46:07.902Z,99149.88
2022-09-28T19:48:34.714Z,99174.63
2022-09-28T19:51:06.165Z,99179.34
2022-09-28T19:53:36.609Z,99183.47
2022-09-28T19:56:05.316Z,99167.84
2022-09-28T19:58:34.852Z,99191.13
2022-09-28T20:01:06.386Z,99201.34
2022-09-28T20:03:34.092Z,99166.88
2022-09-28T20:06:01.710Z,99196.91
2022-09-28T20:08:30.166Z,99157.34
2022-09-28T20:10:59.523Z,99195.41
2022-09-28T20:13:34.400Z,99196.44
2022-09-28T20:16:08.998Z,99204.59
2022-09-28T20:18:38.203Z,99205.94
2022-09-28T20:21:06.935Z,99199.63
2022-09-28T20:23:36.306Z,99197.78
2022-09-28T20:26:04.745Z,99209.91
2022-09-28T20:28:32.174Z,99207.25
2022-09-28T20:31:24.522Z,99202.09
2022-09-28T20:33:51.807Z,99191.56
2022-09-28T20:36:20.986Z,99210.06
2022-09-28T20:38:58.365Z,99209.09
2022-09-28T20:41:25.663Z,99174.50
2022-09-28T20:43:54.552Z,99157.53
2022-09-28T20:46:22.158Z,99154.19
2022-09-28T20:48:52.163Z,99220.69
2022-09-28T20:51:20.299Z,99213.25
2022-09-28T20:53:49.159Z,99178.84
2022-09-28T20:56:22.807Z,99226.38
2022-09-28T20:58:51.072Z,99199.44
2022-09-28T21:01:23.563Z,99231.00
2022-09-28T21:03:53.132Z,99228.22
2022-09-28T21:06:21.938Z,99239.84
2022-09-28T21:08:49.611Z,99214.22
2022-09-28T21:11:21.354Z,99233.84
2022-09-28T21:13:48.558Z,99240.16
2022-09-28T21:16:16.303Z,99233.06
2022-09-28T21:18:42.937Z,99242.34
2022-09-28T21:21:12.798Z,99246.50
2022-09-28T21:23:39.692Z,99250.31
2022-09-28T21:26:24.583Z,99244.47
2022-09-28T21:29:00.195Z,99242.31
2022-09-28T21:31:29.655Z,99227.03
2022-09-28T21:33:57.263Z,99211.72
2022-09-28T21:36:24.711Z,99244.00
2022-09-28T21:38:51.427Z,99255.31
2022-09-28T21:41:18.064Z,99247.66
2022-09-28T21:43:45.599Z,99254.00
2022-09-28T21:46:12.251Z,99246.00
2022-09-28T21:48:38.971Z,99249.22
2022-09-28T21:51:07.655Z,99254.66
2022-09-28T21:53:36.025Z,99248.66
2022-09-28T21:56:04.493Z,99250.38
2022-09-28T21:58:33.281Z,99223.59
2022-09-28T22:01:05.419Z,99247.38
2022-09-28T22:03:33.475Z,99255.66
2022-09-28T22:05:59.954Z,99202.06
2022-09-28T22:08:27.134Z,99232.81
2022-09-28T22:11:00.866Z,99252.16
2022-09-28T22:13:32.431Z,99238.22
2022-09-28T22:15:59.402Z,99247.22
2022-09-28T22:18:27.338Z,99240.94
2022-09-28T22:21:00.404Z,99257.63
2022-09-28T22:23:28.175Z,99236.34
2022-09-28T22:26:09.739Z,99261.44
2022-09-28T22:28:36.686Z,99245.31
2022-09-28T22:31:04.059Z,99264.88
2022-09-28T22:33:30.664Z,99224.53
2022-09-28T22:35:57.149Z,99212.25
2022-09-28T22:38:24.704Z,99238.00
2022-09-28T22:40:54.515Z,99275.25
2022-09-28T22:43:23.394Z,99265.91
2022-09-28T22:45:50.182Z,99248.19
2022-09-28T22:48:16.882Z,99256.44
2022-09-28T22:50:50.785Z,99257.91
2022-09-28T22:53:18.138Z,99276.91
2022-09-28T22:55:44.843Z,99255.09
2022-09-28T22:58:11.982Z,99278.66
2022-09-28T23:00:38.805Z,99252.34
2022-09-28T23:03:05.494Z,99278.06
2022-09-28T23:05:32.103Z,99248.94
2022-09-28T23:07:58.627Z,99238.22
2022-09-28T23:10:25.152Z,99263.31
2022-09-28T23:12:53.726Z,99246.00
2022-09-28T23:15:21.562Z,99224.06
2022-09-28T23:17:52.334Z,99254.66
2022-09-28T23:20:22.400Z,99269.66
2022-09-28T23:22:56.608Z,99233.59
2022-09-28T23:25:23.186Z,99247.34
2022-09-28T23:27:50.716Z,99271.50
2022-09-28T23:30:18.763Z,99270.53
2022-09-28T23:32:45.695Z,99267.69
2022-09-28T23:35:13.527Z,99270.00
2022-09-28T23:37:39.979Z,99258.84
2022-09-28T23:40:07.033Z,99255.25
2022-09-28T23:42:34.916Z,99270.00
2022-09-28T23:45:01.469Z,99239.38
2022-09-28T23:47:27.985Z,99272.31
2022-09-28T23:49:54.438Z,99237.13
2022-09-28T23:52:20.938Z,99271.09
2022-09-28T23:54:47.383Z,99250.69
2022-09-28T23:57:13.867Z,99277.38
2022-09-28T23:59:40.382Z,99270.75
